sensor_id;sensor_type;location;lat;lon;timestamp;P1;durP1;ratioP1;P2;durP2;ratioP2
3491;SDS011;1760;52.480;13.422;2024-02-21T14:07:00;7.20;;;3.27;;
3491;SDS011;1760;52.480;13.422;2024-02-21T14:09:27;3.77;;;2.80;;
3491;SDS011;1760;52.480;13.422;2024-02-21T14:12:12;4.87;;;3.50;;
3491;SDS011;1760;52.480;13.422;2024-02-21T14:14:45;7.77;;;3.77;;
3491;SDS011;1760;52.480;13.422;2024-02-21T14:17:12;12.83;;;4.10;;
3491;SDS011;1760;52.480;13.422;2024-02-21T14:19:41;15.03;;;4.67;;
3491;SDS011;1760;52.480;13.422;2024-02-21T14:22:10;7.50;;;3.70;;
3491;SDS011;1760;52.480;13.422;2024-02-21T14:24:38;6.13;;;3.40;;
3491;SDS011;1760;52.480;13.422;2024-02-21T14:27:05;7.53;;;3.37;;
3491;SDS011;1760;52.480;13.422;2024-02-21T14:32:09;6.23;;;3.90;;
3491;SDS011;1760;52.480;13.422;2024-02-21T14:34:39;5.73;;;3.00;;
3491;SDS011;1760;52.480;13.422;2024-02-21T14:37:06;5.23;;;4.13;;
3491;SDS011;1760;52.480;13.422;2024-02-21T14:39:34;4.60;;;3.30;;
3491;SDS011;1760;52.480;13.422;2024-02-21T14:42:01;9.10;;;4.10;;
3491;SDS011;1760;52.480;13.422;2024-02-21T14:44:28;5.00;;;3.10;;
3491;SDS011;1760;52.480;13.422;2024-02-21T14:46:55;10.07;;;4.37;;
3491;SDS011;1760;52.480;13.422;2024-02-21T14:49:22;5.70;;;3.33;;
3491;SDS011;1760;52.480;13.422;2024-02-21T14:51:50;7.30;;;4.27;;
3491;SDS011;1760;52.480;13.422;2024-02-21T14:54:17;9.43;;;4.50;;
3491;SDS011;1760;52.480;13.422;2024-02-21T14:56:46;8.53;;;4.03;;
3491;SDS011;1760;52.480;13.422;2024-02-21T14:59:13;4.30;;;3.23;;
3491;SDS011;1760;52.480;13.422;2024-02-21T15:01:40;8.70;;;3.70;;
3491;SDS011;1760;52.480;13.422;2024-02-21T15:04:09;8.03;;;3.50;;
3491;SDS011;1760;52.480;13.422;2024-02-21T15:06:36;9.10;;;3.97;;
3491;SDS011;1760;52.480;13.422;2024-02-21T15:09:04;10.30;;;4.00;;
3491;SDS011;1760;52.480;13.422;2024-02-21T15:11:32;8.17;;;3.47;;
3491;SDS011;1760;52.480;13.422;2024-02-21T15:14:00;11.70;;;3.97;;
3491;SDS011;1760;52.480;13.422;2024-02-21T15:16:27;9.47;;;3.57;;
3491;SDS011;1760;52.480;13.422;2024-02-21T15:18:54;5.80;;;3.50;;
3491;SDS011;1760;52.480;13.422;2024-02-21T15:21:21;7.77;;;2.93;;
3491;SDS011;1760;52.480;13.422;2024-02-21T15:23:48;9.30;;;4.60;;
3491;SDS011;1760;52.480;13.422;2024-02-21T15:26:15;8.17;;;3.50;;
3491;SDS011;1760;52.480;13.422;2024-02-21T15:28:42;6.80;;;3.60;;
3491;SDS011;1760;52.480;13.422;2024-02-21T15:31:20;12.67;;;3.67;;
3491;SDS011;1760;52.480;13.422;2024-02-21T15:33:48;5.33;;;2.87;;
3491;SDS011;1760;52.480;13.422;2024-02-21T15:36:15;11.60;;;3.63;;
3491;SDS011;1760;52.480;13.422;2024-02-21T15:38:42;9.27;;;3.53;;
3491;SDS011;1760;52.480;13.422;2024-02-21T15:41:11;7.87;;;4.33;;
3491;SDS011;1760;52.480;13.422;2024-02-21T15:43:38;7.03;;;3.90;;
3491;SDS011;1760;52.480;13.422;2024-02-21T15:46:05;6.97;;;3.67;;
3491;SDS011;1760;52.480;13.422;2024-02-21T15:48:34;5.97;;;3.57;;
3491;SDS011;1760;52.480;13.422;2024-02-21T15:51:00;7.40;;;3.60;;
3491;SDS011;1760;52.480;13.422;2024-02-21T15:53:29;9.03;;;4.03;;
3491;SDS011;1760;52.480;13.422;2024-02-21T15:55:56;9.93;;;4.27;;
3491;SDS011;1760;52.480;13.422;2024-02-21T15:58:23;7.30;;;4.67;;
3491;SDS011;1760;52.480;13.422;2024-02-21T16:00:50;6.20;;;3.63;;
3491;SDS011;1760;52.480;13.422;2024-02-21T16:03:18;4.10;;;3.17;;
3491;SDS011;1760;52.480;13.422;2024-02-21T16:05:46;6.17;;;4.73;;
3491;SDS011;1760;52.480;13.422;2024-02-21T16:08:13;8.80;;;4.00;;
3491;SDS011;1760;52.480;13.422;2024-02-21T16:10:43;8.60;;;4.93;;
3491;SDS011;1760;52.480;13.422;2024-02-21T16:13:10;11.60;;;4.10;;
3491;SDS011;1760;52.480;13.422;2024-02-21T16:15:37;8.03;;;4.17;;
3491;SDS011;1760;52.480;13.422;2024-02-21T16:18:04;9.20;;;3.97;;
3491;SDS011;1760;52.480;13.422;2024-02-21T16:20:31;12.40;;;3.87;;
3491;SDS011;1760;52.480;13.422;2024-02-21T16:22:59;9.20;;;4.00;;
3491;SDS011;1760;52.480;13.422;2024-02-21T16:25:28;11.33;;;5.10;;
3491;SDS011;1760;52.480;13.422;2024-02-21T16:27:55;9.23;;;4.63;;
3491;SDS011;1760;52.480;13.422;2024-02-21T16:30:22;13.60;;;4.63;;
3491;SDS011;1760;52.480;13.422;2024-02-21T16:32:49;7.37;;;4.47;;
3491;SDS011;1760;52.480;13.422;2024-02-21T16:35:17;11.50;;;4.67;;
3491;SDS011;1760;52.480;13.422;2024-02-21T16:37:44;13.53;;;3.80;;
3491;SDS011;1760;52.480;13.422;2024-02-21T16:40:13;7.37;;;4.90;;
3491;SDS011;1760;52.480;13.422;2024-02-21T16:42:43;5.97;;;4.27;;
3491;SDS011;1760;52.480;13.422;2024-02-21T16:45:10;10.63;;;4.73;;
3491;SDS011;1760;52.480;13.422;2024-02-21T16:47:37;4.80;;;3.57;;
3491;SDS011;1760;52.480;13.422;2024-02-21T16:50:04;8.33;;;4.93;;
3491;SDS011;1760;52.480;13.422;2024-02-21T16:52:32;9.40;;;4.50;;
3491;SDS011;1760;52.480;13.422;2024-02-21T16:54:59;13.23;;;5.40;;
3491;SDS011;1760;52.480;13.422;2024-02-21T16:57:27;5.10;;;3.80;;
3491;SDS011;1760;52.480;13.422;2024-02-21T16:59:54;10.10;;;4.50;;
3491;SDS011;1760;52.480;13.422;2024-02-21T17:02:21;8.60;;;4.23;;
3491;SDS011;1760;52.480;13.422;2024-02-21T17:04:49;7.00;;;4.37;;
3491;SDS011;1760;52.480;13.422;2024-02-21T17:07:17;6.33;;;3.70;;
3491;SDS011;1760;52.480;13.422;2024-02-21T17:09:43;5.97;;;3.70;;
3491;SDS011;1760;52.480;13.422;2024-02-21T17:12:10;7.93;;;3.83;;
3491;SDS011;1760;52.480;13.422;2024-02-21T17:14:39;5.33;;;3.70;;
3491;SDS011;1760;52.480;13.422;2024-02-21T17:17:05;8.03;;;3.73;;
3491;SDS011;1760;52.480;13.422;2024-02-21T17:19:32;5.10;;;3.37;;
3491;SDS011;1760;52.480;13.422;2024-02-21T17:22:00;9.83;;;4.03;;
3491;SDS011;1760;52.480;13.422;2024-02-21T17:24:27;4.83;;;3.07;;
3491;SDS011;1760;52.480;13.422;2024-02-21T17:26:54;5.47;;;3.03;;
3491;SDS011;1760;52.480;13.422;2024-02-21T17:29:21;7.97;;;3.83;;
3491;SDS011;1760;52.480;13.422;2024-02-21T17:31:50;4.73;;;3.40;;
3491;SDS011;1760;52.480;13.422;2024-02-21T17:34:17;8.27;;;3.47;;
3491;SDS011;1760;52.480;13.422;2024-02-21T17:36:46;6.27;;;3.80;;
3491;SDS011;1760;52.480;13.422;2024-02-21T17:39:13;11.23;;;3.40;;
3491;SDS011;1760;52.480;13.422;2024-02-21T17:41:43;8.50;;;3.70;;
3491;SDS011;1760;52.480;13.422;2024-02-21T17:44:10;9.23;;;4.70;;
3491;SDS011;1760;52.480;13.422;2024-02-21T17:46:40;10.47;;;4.60;;
3491;SDS011;1760;52.480;13.422;2024-02-21T17:49:09;7.57;;;4.07;;
3491;SDS011;1760;52.480;13.422;2024-02-21T17:51:36;6.87;;;3.80;;
3491;SDS011;1760;52.480;13.422;2024-02-21T17:54:03;7.37;;;3.53;;
3491;SDS011;1760;52.480;13.422;2024-02-21T17:56:30;12.73;;;4.30;;
3491;SDS011;1760;52.480;13.422;2024-02-21T17:58:57;8.10;;;4.30;;
3491;SDS011;1760;52.480;13.422;2024-02-21T18:01:24;12.07;;;3.90;;
3491;SDS011;1760;52.480;13.422;2024-02-21T18:03:51;7.20;;;3.90;;
3491;SDS011;1760;52.480;13.422;2024-02-21T18:06:19;6.17;;;4.50;;
3491;SDS011;1760;52.480;13.422;2024-02-21T18:08:46;11.87;;;5.70;;
3491;SDS011;1760;52.480;13.422;2024-02-21T18:11:13;9.93;;;4.23;;
3491;SDS011;1760;52.480;13.422;2024-02-21T18:13:40;10.13;;;4.67;;
3491;SDS011;1760;52.480;13.422;2024-02-21T18:16:07;7.10;;;4.30;;
3491;SDS011;1760;52.480;13.422;2024-02-21T18:18:34;10.83;;;4.60;;
3491;SDS011;1760;52.480;13.422;2024-02-21T18:21:01;7.80;;;3.93;;
3491;SDS011;1760;52.480;13.422;2024-02-21T18:23:29;9.60;;;4.23;;
3491;SDS011;1760;52.480;13.422;2024-02-21T18:25:56;9.50;;;4.77;;
3491;SDS011;1760;52.480;13.422;2024-02-21T18:28:23;8.30;;;4.23;;
3491;SDS011;1760;52.480;13.422;2024-02-21T18:30:50;7.87;;;5.00;;
3491;SDS011;1760;52.480;13.422;2024-02-21T18:33:17;8.10;;;4.83;;
3491;SDS011;1760;52.480;13.422;2024-02-21T18:35:44;8.33;;;5.17;;
3491;SDS011;1760;52.480;13.422;2024-02-21T18:38:11;7.97;;;4.40;;
3491;SDS011;1760;52.480;13.422;2024-02-21T18:40:39;8.90;;;4.60;;
3491;SDS011;1760;52.480;13.422;2024-02-21T18:43:06;9.20;;;5.97;;
3491;SDS011;1760;52.480;13.422;2024-02-21T18:45:33;11.93;;;5.30;;
3491;SDS011;1760;52.480;13.422;2024-02-21T18:48:00;8.70;;;6.13;;
3491;SDS011;1760;52.480;13.422;2024-02-21T18:50:27;8.87;;;5.47;;
3491;SDS011;1760;52.480;13.422;2024-02-21T18:52:54;11.70;;;5.17;;
3491;SDS011;1760;52.480;13.422;2024-02-21T18:55:24;9.60;;;5.23;;
3491;SDS011;1760;52.480;13.422;2024-02-21T18:57:52;5.90;;;4.50;;
3491;SDS011;1760;52.480;13.422;2024-02-21T19:00:19;9.03;;;6.13;;
3491;SDS011;1760;52.480;13.422;2024-02-21T19:02:49;9.33;;;5.30;;
3491;SDS011;1760;52.480;13.422;2024-02-21T19:05:16;7.20;;;4.90;;
3491;SDS011;1760;52.480;13.422;2024-02-21T19:07:46;8.33;;;4.40;;
3491;SDS011;1760;52.480;13.422;2024-02-21T19:10:13;7.03;;;4.50;;
3491;SDS011;1760;52.480;13.422;2024-02-21T19:12:40;7.57;;;4.83;;
3491;SDS011;1760;52.480;13.422;2024-02-21T19:15:08;7.93;;;5.00;;
3491;SDS011;1760;52.480;13.422;2024-02-21T19:17:35;7.10;;;5.67;;
3491;SDS011;1760;52.480;13.422;2024-02-21T19:20:02;12.87;;;6.67;;
3491;SDS011;1760;52.480;13.422;2024-02-21T19:22:34;14.87;;;6.53;;
3491;SDS011;1760;52.480;13.422;2024-02-21T19:25:01;6.07;;;4.70;;
3491;SDS011;1760;52.480;13.422;2024-02-21T19:27:32;6.90;;;5.20;;
3491;SDS011;1760;52.480;13.422;2024-02-21T19:29:59;10.37;;;5.10;;
3491;SDS011;1760;52.480;13.422;2024-02-21T19:32:28;11.63;;;5.07;;
3491;SDS011;1760;52.480;13.422;2024-02-21T19:34:55;9.63;;;5.57;;
3491;SDS011;1760;52.480;13.422;2024-02-21T19:37:22;7.67;;;4.20;;
3491;SDS011;1760;52.480;13.422;2024-02-21T19:39:49;9.30;;;4.57;;
3491;SDS011;1760;52.480;13.422;2024-02-21T19:42:16;8.50;;;5.00;;
3491;SDS011;1760;52.480;13.422;2024-02-21T19:44:43;9.93;;;4.33;;
3491;SDS011;1760;52.480;13.422;2024-02-21T19:47:10;5.90;;;4.83;;
3491;SDS011;1760;52.480;13.422;2024-02-21T19:49:39;8.80;;;4.20;;
3491;SDS011;1760;52.480;13.422;2024-02-21T19:52:06;6.37;;;4.83;;
3491;SDS011;1760;52.480;13.422;2024-02-21T19:54:33;7.67;;;5.20;;
3491;SDS011;1760;52.480;13.422;2024-02-21T19:57:00;6.03;;;4.83;;
3491;SDS011;1760;52.480;13.422;2024-02-21T19:59:27;11.57;;;5.13;;
3491;SDS011;1760;52.480;13.422;2024-02-21T20:01:54;8.43;;;5.77;;
3491;SDS011;1760;52.480;13.422;2024-02-21T20:04:22;10.53;;;6.80;;
3491;SDS011;1760;52.480;13.422;2024-02-21T20:06:50;11.27;;;6.27;;
3491;SDS011;1760;52.480;13.422;2024-02-21T20:09:17;7.33;;;5.67;;
3491;SDS011;1760;52.480;13.422;2024-02-21T20:11:44;8.53;;;5.30;;
3491;SDS011;1760;52.480;13.422;2024-02-21T20:14:11;10.30;;;4.60;;
3491;SDS011;1760;52.480;13.422;2024-02-21T20:16:38;10.50;;;4.33;;
3491;SDS011;1760;52.480;13.422;2024-02-21T20:19:05;9.33;;;5.33;;
3491;SDS011;1760;52.480;13.422;2024-02-21T20:21:35;7.10;;;5.97;;
3491;SDS011;1760;52.480;13.422;2024-02-21T20:24:06;13.30;;;5.90;;
3491;SDS011;1760;52.480;13.422;2024-02-21T20:26:33;10.80;;;5.77;;
3491;SDS011;1760;52.480;13.422;2024-02-21T20:29:00;7.70;;;5.10;;
3491;SDS011;1760;52.480;13.422;2024-02-21T20:31:38;8.70;;;5.03;;
3491;SDS011;1760;52.480;13.422;2024-02-21T20:34:07;12.30;;;5.57;;
3491;SDS011;1760;52.480;13.422;2024-02-21T20:36:34;9.10;;;5.03;;
3491;SDS011;1760;52.480;13.422;2024-02-21T20:39:01;6.50;;;4.50;;
3491;SDS011;1760;52.480;13.422;2024-02-21T20:41:29;7.90;;;4.57;;
3491;SDS011;1760;52.480;13.422;2024-02-21T20:43:56;8.83;;;5.33;;
3491;SDS011;1760;52.480;13.422;2024-02-21T20:46:23;11.20;;;4.90;;
3491;SDS011;1760;52.480;13.422;2024-02-21T20:48:50;10.47;;;4.23;;
3491;SDS011;1760;52.480;13.422;2024-02-21T20:51:17;6.37;;;4.20;;
3491;SDS011;1760;52.480;13.422;2024-02-21T20:53:44;11.50;;;4.30;;
3491;SDS011;1760;52.480;13.422;2024-02-21T20:56:11;4.70;;;3.60;;
3491;SDS011;1760;52.480;13.422;2024-02-21T20:58:39;6.67;;;4.50;;
3491;SDS011;1760;52.480;13.422;2024-02-21T21:01:06;5.37;;;4.00;;
3491;SDS011;1760;52.480;13.422;2024-02-21T21:03:33;5.03;;;3.97;;
3491;SDS011;1760;52.480;13.422;2024-02-21T21:06:00;6.57;;;4.40;;
3491;SDS011;1760;52.480;13.422;2024-02-21T21:08:28;4.57;;;3.10;;
3491;SDS011;1760;52.480;13.422;2024-02-21T21:10:55;14.37;;;3.70;;
3491;SDS011;1760;52.480;13.422;2024-02-21T21:13:22;7.60;;;4.13;;
3491;SDS011;1760;52.480;13.422;2024-02-21T21:15:50;10.20;;;5.33;;
3491;SDS011;1760;52.480;13.422;2024-02-21T21:18:17;8.73;;;4.70;;
3491;SDS011;1760;52.480;13.422;2024-02-21T21:20:44;5.40;;;3.33;;
3491;SDS011;1760;52.480;13.422;2024-02-21T21:23:11;5.17;;;2.90;;
3491;SDS011;1760;52.480;13.422;2024-02-21T21:25:38;8.90;;;5.17;;
3491;SDS011;1760;52.480;13.422;2024-02-21T21:28:05;3.20;;;2.90;;
3491;SDS011;1760;52.480;13.422;2024-02-21T21:30:33;6.10;;;3.63;;
3491;SDS011;1760;52.480;13.422;2024-02-21T21:33:01;5.07;;;3.00;;
3491;SDS011;1760;52.480;13.422;2024-02-21T21:35:29;7.20;;;3.70;;
3491;SDS011;1760;52.480;13.422;2024-02-21T21:37:56;4.30;;;3.13;;
3491;SDS011;1760;52.480;13.422;2024-02-21T21:40:24;9.60;;;4.03;;
3491;SDS011;1760;52.480;13.422;2024-02-21T21:42:54;4.20;;;3.40;;
3491;SDS011;1760;52.480;13.422;2024-02-21T21:45:21;8.57;;;4.77;;
3491;SDS011;1760;52.480;13.422;2024-02-21T21:47:48;7.30;;;2.60;;
3491;SDS011;1760;52.480;13.422;2024-02-21T21:50:16;15.07;;;3.27;;
3491;SDS011;1760;52.480;13.422;2024-02-21T21:52:43;3.77;;;3.03;;
3491;SDS011;1760;52.480;13.422;2024-02-21T21:55:11;5.40;;;2.80;;
3491;SDS011;1760;52.480;13.422;2024-02-21T21:57:38;6.17;;;3.30;;
3491;SDS011;1760;52.480;13.422;2024-02-21T22:00:05;4.30;;;2.90;;
3491;SDS011;1760;52.480;13.422;2024-02-21T22:02:34;5.00;;;2.80;;
3491;SDS011;1760;52.480;13.422;2024-02-21T22:05:01;8.10;;;3.27;;
3491;SDS011;1760;52.480;13.422;2024-02-21T22:07:30;10.00;;;3.03;;
3491;SDS011;1760;52.480;13.422;2024-02-21T22:09:57;5.50;;;3.27;;
3491;SDS011;1760;52.480;13.422;2024-02-21T22:12:23;8.60;;;3.37;;
3491;SDS011;1760;52.480;13.422;2024-02-21T22:14:50;5.97;;;2.90;;
3491;SDS011;1760;52.480;13.422;2024-02-21T22:17:17;6.37;;;2.90;;
3491;SDS011;1760;52.480;13.422;2024-02-21T22:19:44;4.43;;;2.30;;
3491;SDS011;1760;52.480;13.422;2024-02-21T22:22:11;7.63;;;3.60;;
3491;SDS011;1760;52.480;13.422;2024-02-21T22:24:39;13.43;;;4.20;;
3491;SDS011;1760;52.480;13.422;2024-02-21T22:27:09;4.23;;;2.60;;
3491;SDS011;1760;52.480;13.422;2024-02-21T22:29:37;6.50;;;3.20;;
3491;SDS011;1760;52.480;13.422;2024-02-21T22:32:04;7.87;;;2.90;;
3491;SDS011;1760;52.480;13.422;2024-02-21T22:34:34;13.97;;;3.60;;
3491;SDS011;1760;52.480;13.422;2024-02-21T22:37:01;6.47;;;3.10;;
3491;SDS011;1760;52.480;13.422;2024-02-21T22:39:28;4.87;;;3.03;;
3491;SDS011;1760;52.480;13.422;2024-02-21T22:41:56;4.60;;;2.63;;
3491;SDS011;1760;52.480;13.422;2024-02-21T22:44:23;6.53;;;3.00;;
3491;SDS011;1760;52.480;13.422;2024-02-21T22:46:50;3.93;;;2.90;;
3491;SDS011;1760;52.480;13.422;2024-02-21T22:49:17;2.20;;;2.00;;
3491;SDS011;1760;52.480;13.422;2024-02-21T22:51:44;5.80;;;2.87;;
3491;SDS011;1760;52.480;13.422;2024-02-21T22:54:11;14.10;;;5.13;;
3491;SDS011;1760;52.480;13.422;2024-02-21T22:56:40;4.13;;;3.70;;
3491;SDS011;1760;52.480;13.422;2024-02-21T22:59:09;6.67;;;2.90;;
3491;SDS011;1760;52.480;13.422;2024-02-21T23:01:36;6.83;;;2.50;;
3491;SDS011;1760;52.480;13.422;2024-02-21T23:04:04;4.60;;;2.70;;
3491;SDS011;1760;52.480;13.422;2024-02-21T23:06:31;6.93;;;3.00;;
3491;SDS011;1760;52.480;13.422;2024-02-21T23:08:58;10.23;;;4.13;;
3491;SDS011;1760;52.480;13.422;2024-02-21T23:11:28;11.43;;;5.50;;
3491;SDS011;1760;52.480;13.422;2024-02-21T23:13:55;10.77;;;4.47;;
3491;SDS011;1760;52.480;13.422;2024-02-21T23:16:23;5.80;;;3.27;;
3491;SDS011;1760;52.480;13.422;2024-02-21T23:18:50;5.87;;;3.03;;
3491;SDS011;1760;52.480;13.422;2024-02-21T23:21:20;8.07;;;2.73;;
3491;SDS011;1760;52.480;13.422;2024-02-21T23:23:47;8.53;;;2.80;;
3491;SDS011;1760;52.480;13.422;2024-02-21T23:26:14;8.30;;;2.90;;
3491;SDS011;1760;52.480;13.422;2024-02-21T23:28:41;7.80;;;3.00;;
3491;SDS011;1760;52.480;13.422;2024-02-21T23:31:09;2.50;;;2.27;;
3491;SDS011;1760;52.480;13.422;2024-02-21T23:33:37;6.33;;;3.20;;
3491;SDS011;1760;52.480;13.422;2024-02-21T23:36:04;4.60;;;3.13;;
3491;SDS011;1760;52.480;13.422;2024-02-21T23:38:32;8.67;;;3.00;;
3491;SDS011;1760;52.480;13.422;2024-02-21T23:40:59;5.10;;;2.43;;
3491;SDS011;1760;52.480;13.422;2024-02-21T23:43:25;6.80;;;3.40;;
3491;SDS011;1760;52.480;13.422;2024-02-21T23:45:53;5.47;;;2.60;;
3491;SDS011;1760;52.480;13.422;2024-02-21T23:48:21;5.60;;;3.03;;
3491;SDS011;1760;52.480;13.422;2024-02-21T23:50:49;7.37;;;2.40;;
3491;SDS011;1760;52.480;13.422;2024-02-21T23:53:16;6.93;;;2.60;;
3491;SDS011;1760;52.480;13.422;2024-02-21T23:55:43;3.30;;;2.13;;
3491;SDS011;1760;52.480;13.422;2024-02-21T23:58:10;4.27;;;2.87;;
